Time;durP1;ratioP1;P1;durP2;ratioP2;P2;SDS_P1;SDS_P2;PMS_P1;PMS_P2;Temp;Humidity;BMP_temperature;BMP_pressure;BME280_temperature;BME280_humidity;BME280_pressure;Samples;Min_cycle;Max_cycle;Signal;HPM_P1;HPM_P2
2022/03/14 00:00:40;;;;;;;22.75;12.45;;;;;;;5.60;31.66;102501.31;4941274;28;20172;-72
2022/03/14 00:03:06;;;;;;;24.55;12.30;;;;;;;5.58;31.97;102506.00;4944423;29;20490;-72
2022/03/14 00:05:32;;;;;;;28.77;12.55;;;;;;;5.56;31.80;102507.13;4945466;28;20039;-72
2022/03/14 00:08:01;;;;;;;25.27;12.02;;;;;;;5.52;32.12;102504.00;4947383;28;20030;-72
2022/03/14 00:10:27;;;;;;;22.35;12.00;;;;;;;5.49;31.97;102498.19;4944732;28;20058;-72
2022/03/14 00:12:55;;;;;;;25.45;12.27;;;;;;;5.45;32.18;102497.72;4944673;28;20026;-72
2022/03/14 00:15:22;;;;;;;25.10;12.18;;;;;;;5.40;32.20;102498.25;4942683;29;20055;-72
2022/03/14 00:17:49;;;;;;;24.55;11.82;;;;;;;5.36;32.38;102488.94;4947350;28;20126;-72
2022/03/14 00:20:15;;;;;;;27.30;12.55;;;;;;;5.34;32.39;102490.09;4946909;28;20027;-72
2022/03/14 00:22:42;;;;;;;23.45;12.02;;;;;;;5.32;32.25;102487.63;4946823;28;20083;-72
2022/03/14 00:25:09;;;;;;;29.55;13.50;;;;;;;5.28;32.51;102488.97;4945554;28;20839;-72
2022/03/14 00:27:35;;;;;;;23.83;12.23;;;;;;;5.24;32.50;102490.31;4941666;29;20157;-72
2022/03/14 00:30:07;;;;;;;28.35;12.95;;;;;;;5.21;32.71;102500.47;4942006;29;20062;-72
2022/03/14 00:32:32;;;;;;;24.92;12.07;;;;;;;5.21;32.68;102506.59;4943912;28;20042;-72
2022/03/14 00:34:58;;;;;;;28.75;13.73;;;;;;;5.21;32.41;102516.41;4945469;28;20027;-72
2022/03/14 00:37:23;;;;;;;25.52;12.38;;;;;;;5.20;32.71;102514.72;4944410;28;20409;-72
2022/03/14 00:39:50;;;;;;;27.45;13.32;;;;;;;5.18;32.74;102516.72;4941404;28;20042;-72
2022/03/14 00:42:15;;;;;;;26.15;12.27;;;;;;;5.18;32.83;102519.38;4940342;29;20019;-72
2022/03/14 00:44:42;;;;;;;24.38;12.52;;;;;;;5.20;32.89;102520.03;4941731;28;20087;-72
2022/03/14 00:47:08;;;;;;;24.65;12.95;;;;;;;5.18;32.92;102514.06;4944045;29;20428;-72
2022/03/14 00:49:34;;;;;;;25.45;13.05;;;;;;;5.16;33.00;102514.22;4947701;28;20042;-72
2022/03/14 00:52:00;;;;;;;27.70;12.20;;;;;;;5.15;32.96;102510.75;4944737;28;20220;-72
2022/03/14 00:54:26;;;;;;;25.95;12.77;;;;;;;5.12;33.14;102508.44;4944284;29;20488;-72
2022/03/14 00:56:51;;;;;;;28.20;13.20;;;;;;;5.11;33.52;102511.25;4946816;28;20110;-72
2022/03/14 00:59:17;;;;;;;25.88;13.23;;;;;;;5.08;33.40;102503.63;4943685;28;20051;-72
2022/03/14 01:01:43;;;;;;;25.00;12.82;;;;;;;5.05;33.57;102507.47;4943454;28;20401;-72
2022/03/14 01:04:09;;;;;;;28.20;13.60;;;;;;;5.02;33.67;102501.63;4946572;29;20070;-72
2022/03/14 01:06:35;;;;;;;26.60;12.00;;;;;;;4.99;33.50;102508.13;4944734;28;20058;-72
2022/03/14 01:09:01;;;;;;;26.13;13.82;;;;;;;4.97;33.80;102510.13;4944870;28;20054;-72
2022/03/14 01:11:27;;;;;;;26.35;13.88;;;;;;;4.93;34.05;102507.97;4945039;28;20031;-72
2022/03/14 01:13:52;;;;;;;28.58;14.40;;;;;;;4.89;34.20;102507.47;4942656;28;20034;-72
2022/03/14 01:16:18;;;;;;;30.33;14.88;;;;;;;4.85;34.44;102508.81;4942564;28;20106;-72
2022/03/14 01:18:43;;;;;;;30.23;14.63;;;;;;;4.83;34.50;102503.63;4943693;29;20039;-72
2022/03/14 01:21:09;;;;;;;29.45;15.18;;;;;;;4.81;34.71;102510.94;4943344;28;20036;-72
2022/03/14 01:23:35;;;;;;;29.20;14.85;;;;;;;4.80;34.68;102503.16;4947139;28;20030;-72
2022/03/14 01:26:00;;;;;;;31.38;14.48;;;;;;;4.77;34.85;102511.47;4943372;28;20461;-72
2022/03/14 01:28:26;;;;;;;24.33;14.10;;;;;;;4.75;34.59;102521.41;4945118;28;20082;-72
2022/03/14 01:30:51;;;;;;;29.77;14.02;;;;;;;4.72;34.86;102516.44;4950062;28;20031;-72
2022/03/14 01:33:17;;;;;;;32.90;16.15;;;;;;;4.69;35.01;102511.47;4946188;28;20465;-72
2022/03/14 01:35:42;;;;;;;29.50;14.75;;;;;;;4.66;35.01;102514.44;4949802;28;20065;-72
2022/03/14 01:38:08;;;;;;;31.52;14.63;;;;;;;4.66;34.81;102517.09;4946476;28;20027;-72
2022/03/14 01:40:34;;;;;;;38.10;15.75;;;;;;;4.62;35.24;102521.91;4947653;29;20035;-72
2022/03/14 01:43:00;;;;;;;31.15;15.88;;;;;;;4.62;35.13;102518.44;4946895;28;20552;-72
2022/03/14 01:45:25;;;;;;;33.28;16.90;;;;;;;4.60;35.44;102517.75;4949091;28;20389;-71
2022/03/14 01:47:51;;;;;;;30.65;14.38;;;;;;;4.58;35.58;102517.09;4947465;28;20617;-71
2022/03/14 01:50:18;;;;;;;30.30;14.90;;;;;;;4.56;35.74;102514.63;4947728;28;20426;-71
2022/03/14 01:52:45;;;;;;;32.55;14.77;;;;;;;4.54;35.41;102522.75;4944609;28;20028;-71
2022/03/14 01:55:14;;;;;;;32.13;16.73;;;;;;;4.52;35.45;102511.47;4944815;28;20033;-71
2022/03/14 01:57:40;;;;;;;33.35;15.82;;;;;;;4.50;35.44;102513.47;4943610;28;20527;-71
2022/03/14 02:00:08;;;;;;;25.73;14.82;;;;;;;4.50;35.55;102516.13;4947372;29;20024;-71
2022/03/14 02:02:33;;;;;;;35.95;16.50;;;;;;;4.47;35.72;102511.09;4948947;28;20030;-70
2022/03/14 02:04:59;;;;;;;30.90;14.95;;;;;;;4.45;35.75;102512.28;4945435;29;20038;-71
2022/03/14 02:07:25;;;;;;;34.47;15.73;;;;;;;4.46;35.75;102511.28;4947697;28;20027;-71
2022/03/14 02:09:51;;;;;;;32.70;15.25;;;;;;;4.44;35.89;102510.63;4948328;28;20023;-71
2022/03/14 02:12:16;;;;;;;30.38;15.63;;;;;;;4.42;35.97;102504.66;4940458;29;20118;-72
2022/03/14 02:14:42;;;;;;;34.33;16.40;;;;;;;4.41;36.32;102516.25;4948696;28;20393;-71
2022/03/14 02:17:13;;;;;;;34.60;15.40;;;;;;;4.38;36.23;102513.94;4945893;29;20043;-71
2022/03/14 02:19:40;;;;;;;36.70;16.88;;;;;;;4.38;36.13;102512.13;4947578;28;20027;-72
2022/03/14 02:22:11;;;;;;;33.35;15.82;;;;;;;4.38;36.28;102517.41;4945309;28;20037;-70
2022/03/14 02:24:38;;;;;;;32.95;15.27;;;;;;;4.36;36.34;102516.75;4962988;28;20038;-72
2022/03/14 02:27:04;;;;;;;36.67;15.35;;;;;;;4.33;36.06;102505.66;4944407;28;20035;-72
2022/03/14 02:29:30;;;;;;;33.35;15.27;;;;;;;4.31;36.14;102503.16;4945974;29;20034;-72
2022/03/14 02:31:56;;;;;;;38.00;15.80;;;;;;;4.30;36.43;102500.63;4946480;28;20046;-72
2022/03/14 02:34:21;;;;;;;37.67;16.17;;;;;;;4.27;36.47;102493.84;4939259;29;20028;-72
2022/03/14 02:36:47;;;;;;;34.50;15.15;;;;;;;4.25;36.29;102501.13;4944601;28;20039;-72
2022/03/14 02:39:12;;;;;;;31.52;15.85;;;;;;;4.21;36.25;102497.97;4946299;28;20031;-72
2022/03/14 02:41:39;;;;;;;34.25;14.88;;;;;;;4.17;36.17;102493.19;4946369;28;20047;-72
2022/03/14 02:44:07;;;;;;;30.65;14.90;;;;;;;4.14;36.23;102504.13;4948073;28;20114;-73
2022/03/14 02:46:42;;;;;;;32.70;15.88;;;;;;;4.08;36.50;102499.44;4947986;29;20035;-73
2022/03/14 02:49:09;;;;;;;33.10;16.20;;;;;;;4.07;36.37;102501.25;4950204;28;20027;-73
2022/03/14 02:51:38;;;;;;;30.73;15.77;;;;;;;4.05;36.16;102507.72;4945079;28;20086;-73
2022/03/14 02:54:08;;;;;;;29.08;15.27;;;;;;;4.03;36.08;102501.75;4944517;28;20027;-73
2022/03/14 02:56:34;;;;;;;36.22;15.40;;;;;;;4.01;36.30;102501.94;4948024;29;21009;-73
2022/03/14 02:59:01;;;;;;;42.13;16.40;;;;;;;4.00;36.42;102505.56;4947455;29;20123;-73
2022/03/14 03:01:27;;;;;;;45.25;16.75;;;;;;;4.00;36.47;102499.44;4945372;28;20627;-73
2022/03/14 03:03:52;;;;;;;33.80;16.65;;;;;;;3.97;36.54;102507.72;4946216;28;20106;-73
2022/03/14 03:06:22;;;;;;;31.63;15.02;;;;;;;3.96;36.50;102501.59;4945391;28;20063;-73
2022/03/14 03:08:48;;;;;;;36.83;16.17;;;;;;;3.96;36.71;102509.53;4945621;28;20044;-73
2022/03/14 03:11:14;;;;;;;30.35;15.57;;;;;;;3.94;36.50;102506.19;4944758;28;20126;-73
2022/03/14 03:13:41;;;;;;;37.45;16.33;;;;;;;3.94;36.82;102509.69;4944268;29;20106;-73
2022/03/14 03:16:07;;;;;;;33.80;15.93;;;;;;;3.92;36.93;102511.66;4957817;28;20042;-73
2022/03/14 03:18:34;;;;;;;32.00;16.33;;;;;;;3.93;36.97;102521.28;4947341;28;20110;-73
2022/03/14 03:21:00;;;;;;;36.60;15.85;;;;;;;3.92;37.33;102522.28;4945026;28;20145;-73
2022/03/14 03:23:25;;;;;;;37.22;16.42;;;;;;;3.91;37.37;102519.78;4946048;28;20512;-73
2022/03/14 03:25:51;;;;;;;36.30;17.33;;;;;;;3.91;37.27;102525.09;4945764;28;20089;-73
2022/03/14 03:28:16;;;;;;;34.47;16.73;;;;;;;3.89;37.26;102519.13;4945806;28;20023;-73
2022/03/14 03:30:42;;;;;;;35.72;15.88;;;;;;;3.85;37.46;102529.22;4943954;29;20027;-73
2022/03/14 03:33:07;;;;;;;35.80;17.05;;;;;;;3.82;37.75;102529.53;4943588;28;20614;-73
2022/03/14 03:35:34;;;;;;;31.10;16.60;;;;;;;3.79;37.64;102524.56;4944007;29;20039;-73
2022/03/14 03:38:00;;;;;;;38.38;16.50;;;;;;;3.77;38.14;102533.66;4946458;28;20031;-73
2022/03/14 03:40:26;;;;;;;38.35;17.60;;;;;;;3.74;37.89;102531.31;4946493;28;20031;-73
2022/03/14 03:42:51;;;;;;;36.85;18.00;;;;;;;3.72;38.28;102531.47;4947970;28;20030;-73
2022/03/14 03:45:18;;;;;;;37.70;18.80;;;;;;;3.71;37.92;102536.94;4947776;28;20031;-73
2022/03/14 03:47:44;;;;;;;36.80;18.70;;;;;;;3.69;38.24;102537.09;4946574;28;20717;-73
2022/03/14 03:50:09;;;;;;;38.25;17.77;;;;;;;3.67;38.37;102541.75;4947288;29;20131;-73
2022/03/14 03:52:35;;;;;;;35.83;18.13;;;;;;;3.65;38.27;102541.06;4942433;28;20540;-73
2022/03/14 03:55:00;;;;;;;38.80;17.75;;;;;;;3.65;38.42;102538.41;4945279;28;20070;-73
2022/03/14 03:57:26;;;;;;;43.08;18.25;;;;;;;3.67;38.47;102540.91;4946891;28;20164;-73
2022/03/14 03:59:51;;;;;;;38.70;17.60;;;;;;;3.68;38.50;102548.69;4940816;28;20023;-73
2022/03/14 04:02:20;;;;;;;44.45;18.85;;;;;;;3.69;38.43;102544.22;4941868;29;20106;-73
2022/03/14 04:04:49;;;;;;;40.13;18.45;;;;;;;3.68;38.55;102543.41;4943801;28;20030;-73
2022/03/14 04:07:18;;;;;;;37.97;17.17;;;;;;;3.70;38.49;102549.38;4938203;28;20027;-73
2022/03/14 04:09:46;;;;;;;36.03;18.15;;;;;;;3.68;38.70;102548.69;4943498;28;20030;-73
2022/03/14 04:12:11;;;;;;;36.30;17.23;;;;;;;3.67;38.38;102559.47;4944068;29;20038;-73
2022/03/14 04:14:38;;;;;;;33.08;17.40;;;;;;;3.63;38.50;102551.84;4946678;29;20425;-73
2022/03/14 04:17:04;;;;;;;32.97;17.17;;;;;;;3.63;38.51;102556.31;4943358;29;20066;-73
2022/03/14 04:19:30;;;;;;;30.38;15.88;;;;;;;3.61;38.67;102556.47;4947185;29;20482;-73
2022/03/14 04:21:56;;;;;;;34.17;15.57;;;;;;;3.62;38.54;102559.94;4947335;28;20031;-73
2022/03/14 04:24:22;;;;;;;40.22;17.75;;;;;;;3.59;38.66;102554.94;4945723;28;20508;-73
2022/03/14 04:26:48;;;;;;;35.88;17.27;;;;;;;3.57;38.67;102554.25;4947727;28;20404;-73
2022/03/14 04:29:15;;;;;;;33.58;18.15;;;;;;;3.54;38.94;102550.13;4942972;29;20089;-73
2022/03/14 04:31:41;;;;;;;31.95;16.48;;;;;;;3.52;38.72;102548.63;4944984;28;20034;-73
2022/03/14 04:34:07;;;;;;;39.47;17.33;;;;;;;3.51;38.87;102547.78;4945059;28;20023;-73
2022/03/14 04:36:32;;;;;;;38.60;17.92;;;;;;;3.48;38.88;102542.81;4944752;28;20030;-73
2022/03/14 04:38:58;;;;;;;36.83;16.58;;;;;;;3.47;38.94;102550.91;4941719;29;20106;-73
2022/03/14 04:41:23;;;;;;;39.40;19.35;;;;;;;3.42;39.14;102555.88;4942155;29;20112;-73
2022/03/14 04:43:49;;;;;;;39.42;18.42;;;;;;;3.38;39.21;102557.97;4947778;28;20019;-72
2022/03/14 04:46:14;;;;;;;43.42;19.67;;;;;;;3.33;39.35;102561.09;4944684;28;20039;-73
2022/03/14 04:48:40;;;;;;;42.40;19.00;;;;;;;3.30;39.36;102556.13;4943143;29;20066;-73
2022/03/14 04:51:07;;;;;;;39.58;18.83;;;;;;;3.29;39.32;102556.28;4942210;28;20035;-73
2022/03/14 04:53:35;;;;;;;40.47;18.17;;;;;;;3.28;39.55;102568.69;4946018;29;20023;-73
2022/03/14 04:56:01;;;;;;;30.83;16.23;;;;;;;3.27;39.54;102567.03;4937027;29;20381;-73
2022/03/14 04:58:27;;;;;;;40.80;18.00;;;;;;;3.25;39.57;102576.94;4942525;29;20023;-73
2022/03/14 05:00:54;;;;;;;38.25;18.50;;;;;;;3.23;39.57;102578.94;4942869;29;20112;-73
2022/03/14 05:03:20;;;;;;;38.00;18.27;;;;;;;3.21;39.76;102574.75;4944340;28;20027;-73
2022/03/14 05:05:46;;;;;;;39.40;18.42;;;;;;;3.18;39.49;102583.00;4943186;28;20109;-73
2022/03/14 05:08:12;;;;;;;44.70;19.88;;;;;;;3.13;39.65;102580.81;4939421;29;20039;-72
2022/03/14 05:10:37;;;;;;;39.25;19.02;;;;;;;3.10;40.04;102573.19;4945085;29;20034;-73
2022/03/14 05:13:03;;;;;;;41.13;17.75;;;;;;;3.07;39.94;102576.16;4943798;28;21075;-73
2022/03/14 05:15:30;;;;;;;40.00;18.45;;;;;;;3.04;40.21;102587.03;4940393;28;20024;-73
2022/03/14 05:17:57;;;;;;;44.22;20.17;;;;;;;2.99;40.29;102582.19;4941324;29;20031;-73
2022/03/14 05:20:24;;;;;;;38.25;18.73;;;;;;;2.96;40.38;102581.69;4939348;29;20035;-72
2022/03/14 05:22:50;;;;;;;39.67;20.40;;;;;;;2.88;40.92;102579.81;4943994;28;20066;-73
2022/03/14 05:25:20;;;;;;;40.17;20.35;;;;;;;2.81;40.82;102581.38;4941802;28;20027;-73
2022/03/14 05:27:46;;;;;;;45.97;19.55;;;;;;;2.78;41.08;102591.44;4940802;28;20031;-73
2022/03/14 05:30:12;;;;;;;41.78;18.92;;;;;;;2.73;41.03;102592.75;4940713;28;20098;-73
2022/03/14 05:32:40;;;;;;;44.30;19.77;;;;;;;2.75;40.84;102591.75;4946546;28;20027;-73
2022/03/14 05:35:11;;;;;;;42.58;18.75;;;;;;;2.75;41.01;102591.75;4938922;29;20087;-73
2022/03/14 05:37:40;;;;;;;47.20;20.63;;;;;;;2.76;41.13;102593.41;4943520;28;20027;-73
2022/03/14 05:40:07;;;;;;;44.15;20.33;;;;;;;2.73;41.06;102595.41;4941277;28;20030;-73
2022/03/14 05:42:33;;;;;;;38.72;18.08;;;;;;;2.71;41.14;102593.88;4946733;28;20027;-71
2022/03/14 05:44:59;;;;;;;42.90;19.73;;;;;;;2.72;41.07;102593.72;4941151;28;20491;-72
2022/03/14 05:47:25;;;;;;;50.92;21.60;;;;;;;2.73;41.32;102594.56;4943557;28;20556;-72
2022/03/14 05:49:50;;;;;;;46.38;21.70;;;;;;;2.74;41.11;102596.22;4940077;29;20091;-72
2022/03/14 05:52:17;;;;;;;43.65;20.13;;;;;;;2.76;41.19;102596.91;4946403;28;20015;-72
2022/03/14 05:57:09;;;;;;;43.03;20.35;;;;;;;2.80;41.20;102597.44;4997063;23;20499;-72
2022/03/14 06:00:24;;;;;;;53.03;20.55;;;;;;;2.78;42.17;102599.41;4979104;28;20046;-72
2022/03/14 06:02:52;;;;;;;46.88;20.35;;;;;;;2.90;41.10;102601.66;4970901;28;20039;-72
2022/03/14 06:05:20;;;;;;;41.67;19.90;;;;;;;2.95;41.05;102595.91;4973787;28;20035;-72
2022/03/14 06:07:46;;;;;;;44.65;21.35;;;;;;;2.98;41.49;102593.78;4959324;28;20508;-72
2022/03/14 06:10:13;;;;;;;40.50;19.67;;;;;;;3.04;41.43;102594.97;4961889;28;20046;-72
2022/03/14 06:12:38;;;;;;;42.80;20.95;;;;;;;3.12;41.48;102595.06;4958312;28;20449;-72
2022/03/14 06:15:12;;;;;;;49.38;22.13;;;;;;;3.17;41.31;102598.06;4961235;28;20068;-72
2022/03/14 06:17:42;;;;;;;41.97;20.13;;;;;;;3.23;41.48;102597.47;4960970;28;20030;-72
2022/03/14 06:20:12;;;;;;;41.33;20.17;;;;;;;3.27;41.19;102609.41;4969951;28;20030;-72
2022/03/14 06:22:42;;;;;;;45.92;20.55;;;;;;;3.30;41.59;102610.91;4967592;28;20086;-72
2022/03/14 06:25:08;;;;;;;45.60;20.98;;;;;;;3.36;41.39;102612.09;4969852;28;20045;-72
2022/03/14 06:27:34;;;;;;;46.53;21.88;;;;;;;3.41;41.33;102609.81;4963050;28;20113;-71
2022/03/14 06:29:59;;;;;;;47.92;21.75;;;;;;;3.48;41.29;102602.94;4959484;28;20437;-72
2022/03/14 06:32:25;;;;;;;40.13;19.17;;;;;;;3.53;41.38;102596.16;4966106;28;20114;-72
2022/03/14 06:34:51;;;;;;;48.40;22.75;;;;;;;3.58;41.30;102593.03;4965929;28;20050;-72
2022/03/14 06:37:16;;;;;;;46.15;22.10;;;;;;;3.62;41.27;102600.53;4964179;28;20394;-72
2022/03/14 06:39:42;;;;;;;45.85;21.80;;;;;;;3.67;41.72;102602.72;4965482;28;20515;-72
2022/03/14 06:42:13;;;;;;;41.90;20.05;;;;;;;3.73;41.27;102606.53;4965867;28;20539;-72
2022/03/14 06:44:43;;;;;;;43.88;21.85;;;;;;;3.81;41.25;102606.59;4961667;28;20031;-72
2022/03/14 06:47:10;;;;;;;40.85;22.10;;;;;;;3.90;41.28;102608.28;4964949;28;20400;-72
2022/03/14 06:49:37;;;;;;;50.95;20.75;;;;;;;3.99;40.92;102606.53;4963472;28;20026;-72
2022/03/14 06:52:06;;;;;;;52.35;22.13;;;;;;;4.06;41.10;102610.19;4965901;28;20053;-72
2022/03/14 06:54:32;;;;;;;43.92;22.23;;;;;;;4.13;41.30;102614.72;4966236;28;20038;-72
2022/03/14 06:56:58;;;;;;;43.60;21.27;;;;;;;4.21;40.99;102619.19;4961039;28;20031;-72
2022/03/14 06:59:23;;;;;;;46.35;22.27;;;;;;;4.29;41.18;102627.19;4966236;28;20512;-72
2022/03/14 07:01:49;;;;;;;41.83;22.63;;;;;;;4.36;40.82;102633.53;4963120;28;20439;-72
2022/03/14 07:04:14;;;;;;;39.17;21.02;;;;;;;4.45;40.70;102627.22;4960671;28;20042;-72
2022/03/14 07:06:45;;;;;;;44.95;21.10;;;;;;;4.56;40.77;102618.16;4964703;28;20490;-72
2022/03/14 07:09:10;;;;;;;43.70;21.27;;;;;;;4.65;40.79;102609.19;4963596;28;20081;-72
2022/03/14 07:11:36;;;;;;;45.20;21.52;;;;;;;4.74;40.72;102610.03;4962613;28;20027;-70
2022/03/14 07:14:02;;;;;;;40.80;19.75;;;;;;;4.82;40.59;102602.06;4965845;28;21843;-70
2022/03/14 07:16:27;;;;;;;42.97;20.80;;;;;;;4.89;40.39;102603.09;4962947;28;20027;-69
2022/03/14 07:18:53;;;;;;;43.42;22.75;;;;;;;4.96;40.70;102609.41;4962283;28;20041;-69
2022/03/14 07:21:19;;;;;;;44.63;21.95;;;;;;;5.04;40.37;102616.56;4964807;28;20065;-69
2022/03/14 07:23:45;;;;;;;46.50;21.38;;;;;;;5.14;40.26;102615.38;4964848;28;20515;-69
2022/03/14 07:26:11;;;;;;;44.38;22.52;;;;;;;5.24;40.16;102619.69;4967310;28;20034;-69
2022/03/14 07:28:38;;;;;;;47.55;23.42;;;;;;;5.33;40.24;102614.19;4966592;28;20516;-69
2022/03/14 07:31:05;;;;;;;44.15;22.23;;;;;;;5.42;40.16;102604.41;4970337;28;20034;-69
2022/03/14 07:33:31;;;;;;;49.83;23.95;;;;;;;5.51;39.93;102603.38;4963337;28;20022;-69
2022/03/14 07:35:56;;;;;;;46.53;22.38;;;;;;;5.61;40.04;102622.66;4965314;28;20037;-69
2022/03/14 07:38:22;;;;;;;51.50;22.88;;;;;;;5.67;39.84;102613.16;4967248;28;20035;-69
2022/03/14 07:40:48;;;;;;;50.53;21.60;;;;;;;5.73;40.00;102613.28;4965659;28;20084;-69
2022/03/14 07:43:13;;;;;;;49.90;21.73;;;;;;;5.83;39.92;102620.25;4964452;28;20022;-69
2022/03/14 07:45:39;;;;;;;45.30;21.33;;;;;;;5.90;39.67;102619.41;4967490;28;20038;-69
2022/03/14 07:48:05;;;;;;;46.08;21.85;;;;;;;5.98;39.61;102619.41;4963975;28;20031;-69
2022/03/14 07:50:31;;;;;;;51.20;23.30;;;;;;;6.08;39.52;102616.53;4967080;28;20031;-69
2022/03/14 07:52:57;;;;;;;46.22;23.05;;;;;;;6.15;39.47;102620.19;4968419;28;20018;-70
2022/03/14 07:55:23;;;;;;;45.78;23.13;;;;;;;6.20;39.41;102620.47;4967633;28;20030;-69
2022/03/14 07:57:49;;;;;;;57.55;22.88;;;;;;;6.25;39.46;102617.28;4967989;28;20032;-69
2022/03/14 08:00:18;;;;;;;46.72;22.20;;;;;;;6.28;39.39;102611.63;4965350;28;20030;-69
2022/03/14 08:02:45;;;;;;;40.65;22.50;;;;;;;6.33;39.31;102610.09;4967896;28;20464;-70
2022/03/14 08:05:16;;;;;;;50.03;23.10;;;;;;;6.40;39.15;102617.38;4970258;28;20035;-69
2022/03/14 08:07:46;;;;;;;45.95;22.98;;;;;;;6.49;39.12;102621.69;4969602;28;20027;-70
2022/03/14 08:10:15;;;;;;;49.25;23.00;;;;;;;6.58;39.06;102617.94;4964948;28;20031;-69
2022/03/14 08:12:51;;;;;;;42.90;22.67;;;;;;;6.63;39.13;102618.25;4964522;28;20041;-69
2022/03/14 08:15:31;;;;;;;48.92;22.90;;;;;;;6.71;38.85;102610.22;4968842;28;20065;-70
2022/03/14 08:18:02;;;;;;;43.58;23.60;;;;;;;6.82;38.60;102601.81;4966870;28;20023;-70
2022/03/14 08:20:28;;;;;;;47.28;23.23;;;;;;;6.96;38.68;102605.53;4967617;28;20124;-69
2022/03/14 08:22:54;;;;;;;45.92;22.92;;;;;;;7.08;38.69;102614.75;4969780;28;20481;-70
2022/03/14 08:25:23;;;;;;;51.05;23.38;;;;;;;7.17;38.28;102612.84;4966474;28;20026;-69
2022/03/14 08:27:49;;;;;;;44.92;24.00;;;;;;;7.28;38.16;102604.41;4965445;28;20030;-69
2022/03/14 08:30:16;;;;;;;45.40;22.50;;;;;;;7.41;38.09;102603.81;4967428;28;20031;-69
2022/03/14 08:32:42;;;;;;;45.08;22.27;;;;;;;7.53;38.19;102605.81;4967942;28;20424;-70
2022/03/14 08:35:10;;;;;;;47.20;23.58;;;;;;;7.65;37.84;102600.88;4969300;28;20113;-69
2022/03/14 08:37:41;;;;;;;49.03;23.25;;;;;;;7.77;37.51;102609.25;4967029;28;20046;-69
2022/03/14 08:40:10;;;;;;;42.92;21.88;;;;;;;7.89;37.57;102607.78;4966647;28;20504;-69
2022/03/14 08:42:37;;;;;;;48.08;23.30;;;;;;;7.98;37.45;102593.31;4966038;28;20386;-69
2022/03/14 08:45:03;;;;;;;42.05;22.77;;;;;;;8.11;37.33;102600.69;4967678;28;20405;-69
2022/03/14 08:47:29;;;;;;;38.42;22.38;;;;;;;8.22;37.16;102597.53;4968132;28;20105;-69
2022/03/14 08:49:54;;;;;;;42.28;21.33;;;;;;;8.31;36.99;102601.75;4969961;28;20063;-69
2022/03/14 08:52:20;;;;;;;43.50;20.58;;;;;;;8.42;36.60;102608.47;4966829;28;20251;-70
2022/03/14 08:54:45;;;;;;;44.88;21.20;;;;;;;8.52;36.38;102608.16;4969145;28;20041;-70
2022/03/14 08:57:11;;;;;;;44.10;21.15;;;;;;;8.57;36.31;102608.41;4968899;28;20026;-69
2022/03/14 08:59:37;;;;;;;39.75;21.67;;;;;;;8.66;36.30;102594.78;4968900;28;20644;-70
2022/03/14 09:02:02;;;;;;;39.75;20.58;;;;;;;8.75;35.96;102601.63;4968123;28;20045;-70
2022/03/14 09:04:28;;;;;;;38.75;20.20;;;;;;;8.84;35.53;102590.81;4968411;28;20026;-70
2022/03/14 09:06:55;;;;;;;38.22;19.98;;;;;;;8.93;35.45;102582.47;4968283;28;20026;-70
2022/03/14 09:09:20;;;;;;;36.33;20.88;;;;;;;9.05;35.12;102585.47;4965411;28;20107;-70
2022/03/14 09:11:46;;;;;;;43.55;21.90;;;;;;;9.16;35.02;102586.78;4966740;28;20063;-70
2022/03/14 09:14:12;;;;;;;40.08;21.98;;;;;;;9.25;34.76;102583.75;4968657;28;20037;-70
2022/03/14 09:16:37;;;;;;;41.85;21.75;;;;;;;9.34;35.14;102587.97;4968825;28;20073;-70
2022/03/14 09:19:03;;;;;;;36.90;19.98;;;;;;;9.45;34.86;102578.56;4967544;28;20061;-70
2022/03/14 09:21:33;;;;;;;36.25;20.67;;;;;;;9.58;34.86;102584.00;4966117;28;20031;-69
2022/03/14 09:24:00;;;;;;;35.65;19.83;;;;;;;9.71;34.69;102583.25;4965978;28;20026;-70
2022/03/14 09:26:27;;;;;;;40.53;21.13;;;;;;;9.78;34.22;102588.63;4964648;28;20041;-70
2022/03/14 09:28:52;;;;;;;37.60;20.15;;;;;;;9.84;34.32;102582.47;4967914;28;20392;-70
2022/03/14 09:31:18;;;;;;;42.80;20.65;;;;;;;9.94;33.90;102578.41;4968068;28;20078;-69
2022/03/14 09:33:44;;;;;;;36.95;20.83;;;;;;;10.06;34.01;102577.84;4968555;28;20019;-70
2022/03/14 09:36:10;;;;;;;40.90;19.42;;;;;;;10.15;33.90;102582.81;4959743;28;20027;-69
2022/03/14 09:38:35;;;;;;;42.88;21.10;;;;;;;10.24;33.63;102580.84;4965559;28;20034;-70
2022/03/14 09:41:03;;;;;;;42.55;21.33;;;;;;;10.32;33.30;102587.88;4966388;28;20408;-70
2022/03/14 09:43:37;;;;;;;37.50;19.05;;;;;;;10.39;33.03;102581.47;4965033;28;20893;-70
2022/03/14 09:46:06;;;;;;;38.40;20.40;;;;;;;10.49;33.14;102578.44;4967319;28;20066;-70
2022/03/14 09:48:39;;;;;;;36.70;20.15;;;;;;;10.62;32.84;102581.16;4961341;28;20054;-69
2022/03/14 09:51:06;;;;;;;35.45;20.23;;;;;;;10.75;32.64;102583.00;4968893;28;20034;-69
2022/03/14 09:53:34;;;;;;;35.58;18.83;;;;;;;10.83;32.66;102574.78;4959136;28;20023;-70
2022/03/14 09:56:00;;;;;;;33.75;18.63;;;;;;;10.91;32.29;102582.59;4965506;28;20027;-70
2022/03/14 09:58:27;;;;;;;39.03;20.20;;;;;;;11.00;32.40;102578.72;4968387;28;20105;-70
2022/03/14 10:01:03;;;;;;;36.55;20.38;;;;;;;11.12;32.08;102576.22;4967652;28;20034;-70
2022/03/14 10:03:28;;;;;;;34.22;18.15;;;;;;;11.23;32.18;102577.44;4968304;28;20631;-70
2022/03/14 10:05:54;;;;;;;36.47;18.90;;;;;;;11.31;31.65;102582.59;4968096;28;20122;-69
2022/03/14 10:08:19;;;;;;;35.67;19.77;;;;;;;11.40;31.55;102578.69;4963592;28;20051;-70
2022/03/14 10:10:45;;;;;;;40.88;20.05;;;;;;;11.48;31.29;102571.22;4967968;28;20243;-69
2022/03/14 10:13:11;;;;;;;37.47;18.63;;;;;;;11.60;31.58;102573.25;4962718;28;20022;-70
2022/03/14 10:15:40;;;;;;;40.83;19.55;;;;;;;11.73;31.49;102568.69;4958260;28;20644;-72
2022/03/14 10:18:18;;;;;;;34.33;18.17;;;;;;;11.81;30.59;102570.34;4967367;28;20081;-70
2022/03/14 10:21:05;;;;;;;31.83;16.15;;;;;;;11.85;30.04;102565.34;4967845;28;20023;-70
2022/03/14 10:23:43;;;;;;;35.03;16.42;;;;;;;11.92;29.88;102566.19;4965376;28;20073;-70
2022/03/14 10:26:17;;;;;;;23.27;13.60;;;;;;;11.93;28.68;102565.13;4967378;28;20045;-70
2022/03/14 10:28:48;;;;;;;23.35;13.95;;;;;;;11.99;29.14;102569.66;4968339;28;20027;-70
2022/03/14 10:31:14;;;;;;;25.85;13.38;;;;;;;12.06;28.84;102570.47;4966444;28;20031;-70
2022/03/14 10:33:40;;;;;;;21.02;12.05;;;;;;;11.99;28.72;102577.72;4964989;28;20073;-70
2022/03/14 10:36:06;;;;;;;24.52;13.07;;;;;;;11.93;28.22;102573.19;4967510;28;20035;-70
2022/03/14 10:38:41;;;;;;;26.50;13.27;;;;;;;11.84;28.22;102585.19;4956560;28;20039;-70
2022/03/14 10:41:14;;;;;;;22.17;13.23;;;;;;;11.95;28.13;102587.25;4964295;28;20046;-70
2022/03/14 10:43:42;;;;;;;23.23;14.10;;;;;;;11.93;27.75;102579.41;4968620;28;20070;-70
2022/03/14 10:46:08;;;;;;;26.42;13.55;;;;;;;11.89;27.98;102577.34;4966806;28;20035;-70
2022/03/14 10:48:39;;;;;;;23.35;13.45;;;;;;;11.99;27.84;102583.09;4963434;28;20038;-70
2022/03/14 10:51:07;;;;;;;25.02;13.20;;;;;;;12.07;27.89;102575.63;4964827;28;20034;-70
2022/03/14 10:53:39;;;;;;;25.15;14.00;;;;;;;12.16;28.18;102572.69;4964970;28;20019;-70
2022/03/14 10:56:04;;;;;;;25.80;13.25;;;;;;;12.27;27.79;102583.59;4965953;28;20163;-70
2022/03/14 10:58:33;;;;;;;27.25;14.90;;;;;;;12.35;27.72;102580.63;4967889;28;20083;-70
2022/03/14 11:01:02;;;;;;;21.95;13.10;;;;;;;12.35;27.88;102577.13;4966946;28;20102;-70
2022/03/14 11:03:30;;;;;;;24.80;14.40;;;;;;;12.44;27.72;102573.16;4967627;28;20031;-70
2022/03/14 11:06:07;;;;;;;29.50;14.30;;;;;;;12.50;27.47;102569.59;4960354;28;20113;-70
2022/03/14 11:08:44;;;;;;;25.50;14.65;;;;;;;12.68;27.70;102585.00;4965875;28;20054;-70
2022/03/14 11:11:14;;;;;;;23.88;14.07;;;;;;;12.84;27.67;102576.41;4967349;28;20539;-70
2022/03/14 11:13:41;;;;;;;25.95;13.75;;;;;;;12.99;27.59;102571.53;4962891;28;20027;-70
2022/03/14 11:16:28;;;;;;;23.48;14.43;;;;;;;12.93;27.13;102576.97;4968967;28;20069;-70
2022/03/14 11:18:55;;;;;;;23.02;14.25;;;;;;;13.10;27.61;102571.84;4961874;28;20117;-70